createdAt,value
2022-07-30T00:00:50.607Z,3.25
2022-07-30T00:03:17.548Z,3.10
2022-07-30T00:05:44.542Z,3.45
2022-07-30T00:08:11.453Z,3.08
2022-07-30T00:10:39.112Z,3.17
2022-07-30T00:13:07.224Z,2.97
2022-07-30T00:15:34.232Z,3.05
2022-07-30T00:18:01.120Z,3.35
2022-07-30T00:20:28.958Z,3.58
2022-07-30T00:22:56.285Z,2.90
2022-07-30T00:25:23.200Z,3.10
2022-07-30T00:27:50.072Z,3.40
2022-07-30T00:30:16.852Z,4.20
2022-07-30T00:32:43.755Z,3.38
2022-07-30T00:35:11.411Z,3.22
2022-07-30T00:37:38.261Z,2.95
2022-07-30T00:40:08.552Z,3.00
2022-07-30T00:42:41.882Z,3.63
2022-07-30T00:45:10.304Z,3.22
2022-07-30T00:47:38.677Z,3.53
2022-07-30T00:50:08.882Z,3.78
2022-07-30T00:52:40.594Z,3.55
2022-07-30T00:55:11.523Z,3.50
2022-07-30T00:57:39.346Z,3.83
2022-07-30T01:00:11.054Z,3.78
2022-07-30T01:02:37.999Z,3.63
2022-07-30T01:05:06.311Z,3.65
2022-07-30T01:07:33.560Z,3.75
2022-07-30T01:10:00.386Z,3.85
2022-07-30T01:12:28.440Z,4.10
2022-07-30T01:15:00.123Z,3.70
2022-07-30T01:17:27.222Z,3.55
2022-07-30T01:20:01.764Z,3.97
2022-07-30T01:22:30.620Z,4.20
2022-07-30T01:25:03.964Z,4.22
2022-07-30T01:27:40.167Z,4.25
2022-07-30T01:30:08.565Z,4.97
2022-07-30T01:32:41.803Z,4.75
2022-07-30T01:35:11.576Z,4.55
2022-07-30T01:37:39.681Z,4.45
2022-07-30T01:40:08.782Z,5.00
2022-07-30T01:42:39.432Z,5.63
2022-07-30T01:45:09.675Z,5.10
2022-07-30T01:47:41.983Z,5.47
2022-07-30T01:50:14.072Z,5.55
2022-07-30T01:52:45.495Z,6.15
2022-07-30T01:55:20.407Z,6.03
2022-07-30T01:57:49.460Z,6.10
2022-07-30T02:00:17.845Z,5.90
2022-07-30T02:02:46.282Z,5.93
2022-07-30T02:05:15.303Z,5.93
2022-07-30T02:08:03.375Z,6.05
2022-07-30T02:10:57.500Z,6.13
2022-07-30T02:13:29.746Z,6.15
2022-07-30T02:16:09.093Z,6.40
2022-07-30T02:18:58.386Z,5.93
2022-07-30T02:21:34.052Z,5.63
2022-07-30T02:24:12.105Z,6.80
2022-07-30T02:26:41.814Z,6.65
2022-07-30T02:29:11.731Z,6.43
2022-07-30T02:31:41.701Z,6.50
2022-07-30T02:34:10.919Z,6.95
2022-07-30T02:36:41.895Z,6.70
2022-07-30T02:39:09.619Z,5.82
2022-07-30T02:41:41.107Z,6.28
2022-07-30T02:44:10.300Z,7.18
2022-07-30T02:46:40.151Z,7.25
2022-07-30T02:49:41.779Z,7.05
2022-07-30T02:52:13.507Z,7.15
2022-07-30T02:54:44.332Z,7.40
2022-07-30T02:57:12.693Z,8.45
2022-07-30T02:59:43.773Z,7.43
2022-07-30T03:02:14.874Z,7.82
2022-07-30T03:04:42.832Z,7.78
2022-07-30T03:07:11.400Z,7.90
2022-07-30T03:09:51.945Z,8.10
2022-07-30T03:12:21.165Z,7.97
2022-07-30T03:14:48.248Z,8.30
2022-07-30T03:17:18.164Z,9.05
2022-07-30T03:19:49.316Z,8.48
2022-07-30T03:22:19.836Z,9.38
2022-07-30T03:24:49.630Z,7.78
2022-07-30T03:27:18.398Z,8.43
2022-07-30T03:29:47.000Z,7.95
2022-07-30T03:32:14.937Z,7.70
2022-07-30T03:34:43.697Z,8.13
2022-07-30T03:37:11.646Z,8.32
2022-07-30T03:39:40.443Z,8.23
2022-07-30T03:42:08.715Z,8.25
2022-07-30T03:44:37.548Z,7.82
2022-07-30T03:47:07.103Z,8.13
2022-07-30T03:49:40.565Z,8.68
2022-07-30T03:52:08.631Z,9.07
2022-07-30T03:54:36.833Z,7.88
2022-07-30T03:57:26.730Z,7.82
2022-07-30T03:59:53.689Z,8.40
2022-07-30T04:02:22.439Z,8.50
2022-07-30T04:05:19.698Z,7.53
2022-07-30T04:07:49.431Z,7.88
2022-07-30T04:10:19.789Z,8.05
2022-07-30T04:13:09.552Z,8.25
2022-07-30T04:16:04.958Z,8.57
2022-07-30T04:18:53.357Z,8.82
2022-07-30T04:21:26.840Z,8.25
2022-07-30T04:24:04.487Z,8.85
2022-07-30T04:26:36.926Z,8.45
2022-07-30T04:29:09.152Z,8.13
2022-07-30T04:31:43.618Z,7.47
2022-07-30T04:34:30.741Z,6.93
2022-07-30T04:36:57.586Z,8.23
2022-07-30T04:39:25.135Z,7.57
2022-07-30T04:41:52.131Z,6.82
2022-07-30T04:44:29.221Z,7.53
2022-07-30T04:47:14.708Z,6.68
2022-07-30T04:49:56.503Z,6.97
2022-07-30T04:52:25.131Z,6.65
2022-07-30T04:54:57.725Z,6.53
2022-07-30T04:57:27.708Z,6.05
2022-07-30T04:59:54.683Z,6.72
2022-07-30T05:02:26.657Z,6.60
2022-07-30T05:04:56.026Z,6.07
2022-07-30T05:07:25.760Z,5.85
2022-07-30T05:09:52.678Z,6.38
2022-07-30T05:12:19.586Z,6.57
2022-07-30T05:14:48.360Z,6.50
2022-07-30T05:17:16.553Z,6.43
2022-07-30T05:19:43.698Z,6.57
2022-07-30T05:22:10.959Z,6.15
2022-07-30T05:24:38.253Z,6.15
2022-07-30T05:27:05.484Z,5.32
2022-07-30T05:29:32.259Z,6.30
2022-07-30T05:32:09.730Z,5.43
2022-07-30T05:34:37.076Z,5.93
2022-07-30T05:37:04.746Z,5.10
2022-07-30T05:39:32.296Z,4.95
2022-07-30T05:42:25.507Z,5.25
2022-07-30T05:44:55.883Z,4.97
2022-07-30T05:47:23.079Z,4.13
2022-07-30T05:49:51.147Z,4.28
2022-07-30T05:52:19.114Z,5.05
2022-07-30T05:54:46.131Z,4.55
2022-07-30T05:57:25.153Z,3.97
2022-07-30T05:59:52.337Z,4.25
2022-07-30T06:02:43.484Z,3.42
2022-07-30T06:05:22.296Z,3.70
2022-07-30T06:07:49.259Z,3.50
2022-07-30T06:10:18.558Z,3.60
2022-07-30T06:12:45.360Z,3.22
2022-07-30T06:15:12.373Z,2.70
2022-07-30T06:17:57.050Z,2.72
2022-07-30T06:20:39.317Z,3.30
2022-07-30T06:23:17.807Z,2.58
2022-07-30T06:26:05.908Z,2.33
2022-07-30T06:28:40.526Z,2.50
2022-07-30T06:31:15.635Z,2.10
2022-07-30T06:33:43.326Z,2.17
2022-07-30T06:36:14.097Z,2.47
2022-07-30T06:38:51.390Z,2.10
2022-07-30T06:41:25.014Z,2.45
2022-07-30T06:43:53.588Z,1.95
2022-07-30T06:46:38.824Z,2.05
2022-07-30T06:49:06.008Z,2.05
2022-07-30T06:51:33.275Z,1.73
2022-07-30T06:54:00.274Z,1.95
2022-07-30T06:56:47.372Z,1.75
2022-07-30T06:59:14.167Z,2.05
2022-07-30T07:01:59.687Z,2.10
2022-07-30T07:04:27.222Z,2.00
2022-07-30T07:06:54.107Z,2.28
2022-07-30T07:09:34.893Z,2.42
2022-07-30T07:12:25.698Z,1.88
2022-07-30T07:14:52.745Z,1.63
2022-07-30T07:17:19.867Z,1.40
2022-07-30T07:20:10.328Z,1.67
2022-07-30T07:22:45.833Z,2.03
2022-07-30T07:25:12.756Z,1.90
2022-07-30T07:27:41.392Z,1.63
2022-07-30T07:30:09.015Z,1.77
2022-07-30T07:32:37.832Z,1.95
2022-07-30T07:35:06.028Z,1.92
2022-07-30T07:37:35.427Z,2.40
2022-07-30T07:40:04.354Z,2.47
2022-07-30T07:42:35.055Z,2.80
2022-07-30T07:45:02.122Z,2.35
2022-07-30T07:47:52.132Z,2.58
2022-07-30T07:50:36.333Z,2.05
2022-07-30T07:53:04.643Z,2.58
2022-07-30T07:55:31.724Z,2.25
2022-07-30T07:58:01.053Z,2.08
2022-07-30T08:00:29.369Z,1.88
2022-07-30T08:02:56.438Z,1.92
2022-07-30T08:05:23.728Z,1.70
2022-07-30T08:08:00.918Z,2.05
2022-07-30T08:10:50.535Z,1.73
2022-07-30T08:13:52.420Z,1.60
2022-07-30T08:16:58.282Z,1.95
2022-07-30T08:19:43.615Z,1.60
2022-07-30T08:22:18.543Z,1.42
2022-07-30T08:24:45.473Z,1.48
2022-07-30T08:27:12.300Z,1.60
2022-07-30T08:29:39.256Z,1.80
2022-07-30T08:32:06.722Z,1.52
2022-07-30T08:34:36.584Z,1.83
2022-07-30T08:37:04.149Z,1.50
2022-07-30T08:39:31.074Z,1.83
2022-07-30T08:41:59.223Z,2.20
2022-07-30T08:44:28.828Z,1.45
2022-07-30T08:46:59.691Z,1.48
2022-07-30T08:49:38.522Z,1.63
2022-07-30T08:52:08.595Z,1.40
2022-07-30T08:54:56.073Z,1.15
2022-07-30T08:57:23.588Z,1.33
2022-07-30T09:00:00.026Z,1.40
2022-07-30T09:02:31.949Z,1.75
2022-07-30T09:05:06.743Z,1.85
2022-07-30T09:07:35.256Z,1.48
2022-07-30T09:10:06.576Z,1.58
2022-07-30T09:12:41.302Z,1.48
2022-07-30T09:15:19.302Z,2.08
2022-07-30T09:18:00.534Z,1.70
2022-07-30T09:20:33.295Z,1.42
2022-07-30T09:23:03.985Z,1.38
2022-07-30T09:25:51.903Z,1.50
2022-07-30T09:28:37.511Z,1.40
2022-07-30T09:31:23.765Z,1.27
2022-07-30T09:34:29.980Z,1.35
2022-07-30T09:37:24.743Z,1.52
2022-07-30T09:40:32.090Z,1.50
2022-07-30T09:43:18.087Z,1.30
2022-07-30T09:46:01.473Z,1.30
2022-07-30T09:48:28.827Z,1.42
2022-07-30T09:50:57.506Z,1.20
2022-07-30T09:53:25.065Z,1.45
2022-07-30T09:55:52.314Z,1.50
2022-07-30T09:58:26.614Z,1.60
2022-07-30T10:01:01.524Z,1.70
2022-07-30T10:03:54.432Z,1.30
2022-07-30T10:06:46.240Z,1.27
2022-07-30T10:09:37.276Z,1.42
2022-07-30T10:12:10.397Z,1.23
2022-07-30T10:14:44.829Z,1.20
2022-07-30T10:17:15.759Z,1.83
2022-07-30T10:19:53.477Z,1.40
2022-07-30T10:22:42.673Z,1.30
2022-07-30T10:25:20.771Z,1.30
2022-07-30T10:28:09.147Z,1.13
2022-07-30T10:30:36.927Z,1.42
2022-07-30T10:33:04.400Z,1.40
2022-07-30T10:35:37.707Z,1.17
2022-07-30T10:38:13.812Z,1.42
2022-07-30T10:40:58.584Z,1.48
2022-07-30T10:44:07.796Z,0.95
2022-07-30T10:47:06.998Z,1.33
2022-07-30T10:49:41.133Z,1.20
2022-07-30T10:52:11.055Z,1.40
2022-07-30T10:54:45.499Z,0.90
2022-07-30T10:57:22.685Z,1.00
2022-07-30T10:59:55.458Z,0.95
2022-07-30T11:02:25.869Z,1.23
2022-07-30T11:05:44.340Z,1.08
2022-07-30T11:08:36.172Z,0.90
2022-07-30T11:12:01.920Z,1.30
2022-07-30T11:14:14.439Z,1.00
2022-07-30T11:16:42.227Z,1.10
2022-07-30T11:19:56.290Z,1.70
2022-07-30T11:22:28.085Z,1.20
2022-07-30T11:24:56.454Z,1.10
2022-07-30T11:27:50.284Z,1.10
2022-07-30T11:30:17.695Z,1.00
2022-07-30T11:32:48.683Z,0.95
2022-07-30T11:35:20.146Z,0.98
2022-07-30T11:37:58.664Z,0.95
2022-07-30T11:40:35.428Z,0.90
2022-07-30T11:43:35.752Z,0.85
2022-07-30T11:46:29.682Z,1.17
2022-07-30T11:49:08.182Z,0.90
2022-07-30T11:51:47.188Z,1.13
2022-07-30T11:54:14.745Z,1.00
2022-07-30T11:57:04.327Z,0.82
2022-07-30T11:59:31.581Z,0.93
2022-07-30T12:02:01.605Z,1.13
2022-07-30T12:04:29.645Z,0.70
2022-07-30T12:06:56.551Z,0.82
2022-07-30T12:09:29.215Z,1.10
2022-07-30T12:11:57.706Z,0.90
2022-07-30T12:14:25.212Z,0.90
2022-07-30T12:16:54.608Z,1.00
2022-07-30T12:19:21.654Z,0.90
2022-07-30T12:21:53.543Z,1.33
2022-07-30T12:24:26.611Z,1.00
2022-07-30T12:27:07.765Z,1.00
2022-07-30T12:29:35.689Z,1.42
2022-07-30T12:32:05.645Z,1.00
2022-07-30T12:34:33.698Z,1.00
2022-07-30T12:37:10.533Z,0.93
2022-07-30T12:39:37.513Z,0.98
2022-07-30T12:42:04.738Z,0.68
2022-07-30T12:44:44.485Z,1.10
2022-07-30T12:47:27.485Z,1.00
2022-07-30T12:50:01.706Z,0.75
2022-07-30T12:52:35.892Z,1.20
2022-07-30T12:55:07.060Z,1.13
2022-07-30T12:58:09.390Z,1.40
2022-07-30T13:00:48.126Z,1.05
2022-07-30T13:03:20.643Z,1.25
2022-07-30T13:05:50.935Z,1.30
2022-07-30T13:08:20.074Z,1.10
2022-07-30T13:11:00.640Z,1.10
2022-07-30T13:13:29.359Z,1.02
2022-07-30T13:16:05.365Z,0.98
2022-07-30T13:18:34.852Z,1.00
2022-07-30T13:21:04.338Z,1.20
2022-07-30T13:23:31.317Z,0.88
2022-07-30T13:25:58.299Z,0.90
2022-07-30T13:28:25.432Z,0.93
2022-07-30T13:30:52.559Z,1.15
2022-07-30T13:33:19.458Z,1.27
2022-07-30T13:35:46.312Z,1.10
2022-07-30T13:38:13.597Z,1.15
2022-07-30T13:40:41.288Z,1.30
2022-07-30T13:43:08.739Z,1.10
2022-07-30T13:45:35.911Z,1.10
2022-07-30T13:48:03.973Z,1.20
2022-07-30T13:50:30.946Z,1.00
2022-07-30T13:53:02.114Z,1.00
2022-07-30T13:55:30.165Z,1.05
2022-07-30T13:57:57.056Z,0.93
2022-07-30T14:00:24.661Z,1.13
2022-07-30T14:02:51.790Z,1.10
2022-07-30T14:05:18.678Z,1.05
2022-07-30T14:07:45.423Z,1.23
2022-07-30T14:10:12.435Z,0.93
2022-07-30T14:12:39.971Z,1.25
2022-07-30T14:15:09.274Z,1.20
2022-07-30T14:17:36.352Z,1.27
2022-07-30T14:20:04.578Z,1.10
2022-07-30T14:22:31.476Z,1.33
2022-07-30T14:25:00.070Z,1.17
2022-07-30T14:27:26.831Z,1.20
2022-07-30T14:29:53.633Z,1.27
2022-07-30T14:32:20.551Z,1.10
2022-07-30T14:34:50.884Z,1.23
2022-07-30T14:37:18.088Z,1.10
2022-07-30T14:39:44.873Z,1.40
2022-07-30T14:42:11.762Z,0.98
2022-07-30T14:44:41.385Z,1.00
2022-07-30T14:47:08.838Z,1.30
2022-07-30T14:49:36.086Z,1.10
2022-07-30T14:52:02.957Z,1.73
2022-07-30T14:54:31.230Z,1.27
2022-07-30T14:56:58.753Z,1.55
2022-07-30T14:59:27.762Z,1.08
2022-07-30T15:01:56.545Z,1.05
2022-07-30T15:04:23.483Z,1.05
2022-07-30T15:06:50.322Z,1.40
2022-07-30T15:09:17.163Z,1.33
2022-07-30T15:12:08.072Z,1.10
2022-07-30T15:14:31.445Z,1.02
2022-07-30T15:17:03.851Z,1.65
2022-07-30T15:19:32.661Z,1.23
2022-07-30T15:22:02.442Z,1.25
2022-07-30T15:24:30.317Z,1.10
2022-07-30T15:26:57.101Z,1.60
2022-07-30T15:29:24.352Z,1.10
2022-07-30T15:31:51.759Z,1.50
2022-07-30T15:34:19.016Z,1.40
2022-07-30T15:36:45.869Z,1.20
2022-07-30T15:39:13.371Z,1.20
2022-07-30T15:41:42.841Z,1.48
2022-07-30T15:44:09.612Z,1.40
2022-07-30T15:46:41.520Z,1.30
2022-07-30T15:49:09.898Z,1.20
2022-07-30T15:51:37.488Z,1.30
2022-07-30T15:54:04.480Z,1.40
2022-07-30T15:56:33.323Z,1.30
2022-07-30T15:59:00.152Z,1.77
2022-07-30T16:01:27.068Z,1.20
2022-07-30T16:03:54.675Z,1.00
2022-07-30T16:06:21.680Z,1.60
2022-07-30T16:08:48.603Z,1.38
2022-07-30T16:11:18.368Z,1.30
2022-07-30T16:13:45.177Z,1.60
2022-07-30T16:16:12.112Z,1.40
2022-07-30T16:18:38.891Z,1.55
2022-07-30T16:21:05.944Z,1.45
2022-07-30T16:23:36.673Z,1.35
2022-07-30T16:26:04.541Z,1.38
2022-07-30T16:28:32.178Z,1.30
2022-07-30T16:30:59.000Z,1.20
2022-07-30T16:33:26.266Z,1.80
2022-07-30T16:35:53.078Z,1.30
2022-07-30T16:38:23.248Z,1.42
2022-07-30T16:40:50.610Z,1.30
2022-07-30T16:43:19.854Z,1.35
2022-07-30T16:45:47.740Z,1.30
2022-07-30T16:48:14.857Z,2.17
2022-07-30T16:50:42.561Z,1.30
2022-07-30T16:53:14.150Z,1.40
2022-07-30T16:55:42.643Z,1.30
2022-07-30T16:58:10.836Z,1.13
2022-07-30T17:00:37.926Z,1.27
2022-07-30T17:03:04.813Z,1.40
2022-07-30T17:05:31.746Z,1.67
2022-07-30T17:07:58.937Z,1.20
2022-07-30T17:10:26.598Z,1.50
2022-07-30T17:12:56.879Z,1.38
2022-07-30T17:15:32.874Z,1.08
2022-07-30T17:18:01.690Z,1.25
2022-07-30T17:20:30.397Z,1.30
2022-07-30T17:22:57.872Z,1.38
2022-07-30T17:25:28.263Z,1.58
2022-07-30T17:27:56.703Z,1.30
2022-07-30T17:30:24.906Z,1.33
2022-07-30T17:32:52.597Z,1.30
2022-07-30T17:35:19.639Z,1.60
2022-07-30T17:37:48.978Z,1.30
2022-07-30T17:40:28.341Z,1.40
2022-07-30T17:43:05.868Z,1.38
2022-07-30T17:45:35.041Z,1.40
2022-07-30T17:48:02.838Z,1.27
2022-07-30T17:50:34.313Z,1.50
2022-07-30T17:53:04.010Z,1.42
2022-07-30T17:55:34.765Z,1.20
2022-07-30T17:58:05.659Z,1.30
2022-07-30T18:00:38.618Z,1.35
2022-07-30T18:03:05.461Z,1.17
2022-07-30T18:05:32.565Z,1.60
2022-07-30T18:07:59.352Z,1.27
2022-07-30T18:10:26.140Z,1.30
2022-07-30T18:12:52.979Z,1.50
2022-07-30T18:15:20.491Z,1.60
2022-07-30T18:17:47.721Z,1.58
2022-07-30T18:20:15.376Z,1.48
2022-07-30T18:22:42.745Z,1.50
2022-07-30T18:25:18.060Z,1.80
2022-07-30T18:27:47.244Z,1.60
2022-07-30T18:30:14.900Z,1.52
2022-07-30T18:32:42.043Z,1.63
2022-07-30T18:35:15.484Z,1.20
2022-07-30T18:37:44.277Z,1.55
2022-07-30T18:40:14.148Z,1.50
2022-07-30T18:42:41.908Z,1.52
2022-07-30T18:45:10.515Z,1.40
2022-07-30T18:47:44.289Z,1.33
2022-07-30T18:50:14.601Z,1.40
2022-07-30T18:52:42.111Z,1.17
2022-07-30T18:55:14.538Z,1.27
2022-07-30T18:57:45.159Z,1.75
2022-07-30T19:00:34.594Z,1.33
2022-07-30T19:03:11.219Z,1.40
2022-07-30T19:05:53.826Z,1.60
2022-07-30T19:08:27.730Z,1.60
2022-07-30T19:11:11.207Z,1.40
2022-07-30T19:13:50.444Z,1.40
2022-07-30T19:16:29.311Z,1.30
2022-07-30T19:19:05.503Z,1.50
2022-07-30T19:21:42.492Z,1.60
2022-07-30T19:24:17.088Z,1.48
2022-07-30T19:26:57.765Z,1.48
2022-07-30T19:29:25.764Z,1.30
2022-07-30T19:31:55.639Z,1.50
2022-07-30T19:34:23.403Z,1.10
2022-07-30T19:36:51.151Z,1.40
2022-07-30T19:39:21.824Z,1.92
2022-07-30T19:41:53.330Z,1.40
2022-07-30T19:44:21.220Z,1.38
2022-07-30T19:46:51.529Z,1.40
2022-07-30T19:49:22.948Z,1.75
2022-07-30T19:52:11.171Z,1.25
2022-07-30T19:54:51.346Z,1.92
2022-07-30T19:57:22.128Z,1.67
2022-07-30T19:59:59.963Z,1.48
2022-07-30T20:02:49.015Z,1.85
2022-07-30T20:05:17.438Z,1.80
2022-07-30T20:07:49.073Z,1.60
2022-07-30T20:10:29.556Z,1.50
2022-07-30T20:13:11.652Z,1.65
2022-07-30T20:15:40.578Z,1.60
2022-07-30T20:18:11.582Z,1.50
2022-07-30T20:20:39.392Z,1.50
2022-07-30T20:23:13.042Z,2.28
2022-07-30T20:25:47.877Z,1.35
2022-07-30T20:28:20.544Z,1.60
2022-07-30T20:31:01.635Z,1.50
2022-07-30T20:33:35.990Z,1.60
2022-07-30T20:36:11.745Z,1.90
2022-07-30T20:38:47.403Z,1.70
2022-07-30T20:41:19.567Z,1.80
2022-07-30T20:46:38.905Z,1.52
2022-07-30T20:49:10.184Z,1.60
2022-07-30T20:51:44.302Z,1.42
2022-07-30T20:54:22.219Z,1.63
2022-07-30T20:56:56.743Z,1.60
2022-07-30T20:59:29.165Z,1.50
2022-07-30T21:02:02.743Z,1.50
2022-07-30T21:04:36.008Z,1.70
2022-07-30T21:07:07.351Z,1.80
2022-07-30T21:09:52.383Z,1.65
2022-07-30T21:12:32.517Z,1.80
2022-07-30T21:15:22.934Z,1.85
2022-07-30T21:17:55.015Z,1.50
2022-07-30T21:20:27.854Z,1.60
2022-07-30T21:23:05.651Z,1.90
2022-07-30T21:26:00.945Z,1.60
2022-07-30T21:28:35.172Z,1.67
2022-07-30T21:31:07.381Z,1.67
2022-07-30T21:33:37.446Z,2.13
2022-07-30T21:36:10.376Z,2.25
2022-07-30T21:38:42.764Z,1.92
2022-07-30T21:41:15.408Z,1.90
2022-07-30T21:43:49.595Z,1.70
2022-07-30T21:46:24.784Z,1.90
2022-07-30T21:48:59.656Z,1.70
2022-07-30T21:51:29.888Z,2.28
2022-07-30T21:54:02.445Z,2.00
2022-07-30T21:56:42.724Z,2.00
2022-07-30T21:59:16.018Z,1.80
2022-07-30T22:01:48.900Z,1.92
2022-07-30T22:04:19.023Z,2.15
2022-07-30T22:06:48.595Z,1.80
2022-07-30T22:09:33.086Z,2.42
2022-07-30T22:12:09.376Z,2.30
2022-07-30T22:14:40.259Z,2.28
2022-07-30T22:17:22.426Z,2.40
2022-07-30T22:19:50.961Z,2.22
2022-07-30T22:22:27.196Z,2.10
2022-07-30T22:25:00.093Z,1.92
2022-07-30T22:27:39.969Z,1.85
2022-07-30T22:30:10.909Z,2.00
2022-07-30T22:32:41.850Z,2.17
2022-07-30T22:35:16.268Z,2.45
2022-07-30T22:37:49.645Z,2.10
2022-07-30T22:40:19.762Z,2.20
2022-07-30T22:42:54.597Z,2.10
2022-07-30T22:45:47.175Z,2.22
2022-07-30T22:48:13.985Z,1.90
2022-07-30T22:50:41.842Z,1.80
2022-07-30T22:53:23.412Z,1.90
2022-07-30T22:56:00.309Z,1.80
2022-07-30T22:58:31.889Z,2.33
2022-07-30T23:01:04.232Z,1.90
2022-07-30T23:03:31.906Z,2.15
2022-07-30T23:05:59.564Z,1.88
2022-07-30T23:08:29.451Z,2.00
2022-07-30T23:11:05.628Z,2.08
2022-07-30T23:12:18.423Z,1.83
2022-07-30T23:13:33.293Z,1.95
2022-07-30T23:16:00.949Z,2.05
2022-07-30T23:18:35.270Z,2.10
2022-07-30T23:21:10.422Z,2.08
2022-07-30T23:23:40.846Z,2.33
2022-07-30T23:26:09.021Z,2.25
2022-07-30T23:28:37.403Z,1.85
2022-07-30T23:31:08.855Z,2.17
2022-07-30T23:33:36.906Z,2.20
2022-07-30T23:36:09.985Z,2.60
2022-07-30T23:38:46.365Z,2.85
2022-07-30T23:41:15.088Z,2.72
2022-07-30T23:44:00.439Z,2.53
2022-07-30T23:46:36.576Z,2.72
2022-07-30T23:49:22.295Z,2.50
2022-07-30T23:51:59.499Z,2.47
2022-07-30T23:54:29.564Z,2.45
2022-07-30T23:56:57.637Z,2.25
2022-07-30T23:59:41.721Z,2.47
